Time,TemperatureF,DewpointF,PressureIn,WindDirection,WindDirectionDegrees,WindSpeedMPH,WindSpeedGustMPH,Humidity,HourlyPrecipIn,Conditions,Clouds,dailyrainin,SoftwareType,DateUTC
2014-11-23 00:00:00,39.9,37.8,30.40,WNW,286,0.0,0.0,92,0.00,,,0.00,Wunderground v.1.15,2014-11-23 08:00:00,
2014-11-23 00:05:00,39.9,37.8,30.40,WNW,286,0.0,0.0,92,0.00,,,0.00,Wunderground v.1.15,2014-11-23 08:05:00,
2014-11-23 00:10:00,39.8,37.7,30.40,WNW,286,0.0,0.0,92,0.00,,,0.00,Wunderground v.1.15,2014-11-23 08:10:00,
2014-11-23 00:15:00,39.8,37.7,30.40,WNW,286,0.0,0.0,92,0.00,,,0.00,Wunderground v.1.15,2014-11-23 08:15:00,
2014-11-23 00:20:00,39.6,37.5,30.40,WNW,286,0.0,0.0,92,0.00,,,0.00,Wunderground v.1.15,2014-11-23 08:20:00,
2014-11-23 00:25:00,39.6,37.5,30.40,WNW,286,0.0,0.0,92,0.00,,,0.00,Wunderground v.1.15,2014-11-23 08:25:00,
2014-11-23 00:30:00,39.6,37.5,30.40,WNW,286,0.0,0.0,92,0.00,,,0.00,Wunderground v.1.15,2014-11-23 08:30:00,
2014-11-23 00:35:00,39.6,37.5,30.40,WNW,286,0.0,0.0,92,0.00,,,0.00,Wunderground v.1.15,2014-11-23 08:35:00,
2014-11-23 00:40:00,39.8,37.7,30.40,WNW,286,0.0,0.0,92,0.00,,,0.00,Wunderground v.1.15,2014-11-23 08:40:00,
2014-11-23 00:45:00,39.8,37.7,30.41,WNW,286,0.0,0.0,92,0.00,,,0.00,Wunderground v.1.15,2014-11-23 08:45:00,
2014-11-23 00:50:00,39.8,37.7,30.41,WNW,286,0.0,0.0,92,0.00,,,0.00,Wunderground v.1.15,2014-11-23 08:50:00,
2014-11-23 01:00:00,39.8,37.7,30.41,WNW,286,0.0,0.0,92,0.00,,,0.00,Wunderground v.1.15,2014-11-23 09:00:00,
2014-11-23 01:04:00,39.8,37.7,30.41,WNW,286,0.0,0.0,92,0.00,,,0.00,Wunderground v.1.15,2014-11-23 09:04:00,
2014-11-23 01:09:00,39.9,37.8,30.41,WNW,286,0.0,0.0,92,0.00,,,0.00,Wunderground v.1.15,2014-11-23 09:09:00,
2014-11-23 01:14:00,39.9,37.8,30.41,WNW,286,0.0,0.0,92,0.00,,,0.00,Wunderground v.1.15,2014-11-23 09:14:00,
2014-11-23 01:20:00,40.1,38.2,30.41,WNW,286,0.0,0.0,93,0.00,,,0.00,Wunderground v.1.15,2014-11-23 09:20:00,
2014-11-23 01:25:00,40.3,38.4,30.41,WNW,286,0.0,0.0,93,0.00,,,0.00,Wunderground v.1.15,2014-11-23 09:25:00,
2014-11-23 01:30:00,40.5,38.6,30.41,WNW,286,0.0,0.0,93,0.00,,,0.00,Wunderground v.1.15,2014-11-23 09:30:00,
2014-11-23 01:35:00,40.5,38.6,30.41,WNW,286,0.0,0.0,93,0.00,,,0.00,Wunderground v.1.15,2014-11-23 09:35:00,
2014-11-23 01:40:00,40.5,38.6,30.41,WNW,286,0.0,0.0,93,0.00,,,0.00,Wunderground v.1.15,2014-11-23 09:40:00,
2014-11-23 01:45:00,40.6,38.7,30.41,WNW,286,0.0,0.0,93,0.00,,,0.00,Wunderground v.1.15,2014-11-23 09:45:00,
2014-11-23 01:50:00,40.6,38.7,30.41,WNW,286,0.0,0.0,93,0.00,,,0.00,Wunderground v.1.15,2014-11-23 09:50:00,
2014-11-23 02:00:00,40.6,38.7,30.43,WNW,286,0.0,0.0,93,0.00,,,0.00,Wunderground v.1.15,2014-11-23 10:00:00,
2014-11-23 02:05:00,40.6,38.7,30.43,WNW,286,0.0,0.0,93,0.00,,,0.00,Wunderground v.1.15,2014-11-23 10:05:00,
2014-11-23 02:10:00,40.6,38.7,30.43,WNW,286,0.0,0.0,93,0.00,,,0.00,Wunderground v.1.15,2014-11-23 10:10:00,
2014-11-23 02:15:00,40.6,38.7,30.43,WNW,286,0.0,0.0,93,0.00,,,0.00,Wunderground v.1.15,2014-11-23 10:15:00,
2014-11-23 02:20:00,40.6,38.7,30.43,WNW,286,0.0,0.0,93,0.00,,,0.00,Wunderground v.1.15,2014-11-23 10:20:00,
2014-11-23 02:24:00,40.6,38.7,30.43,WNW,286,0.0,0.0,93,0.00,,,0.00,Wunderground v.1.15,2014-11-23 10:24:00,
2014-11-23 02:29:00,40.8,38.9,30.43,WNW,286,0.0,0.0,93,0.00,,,0.00,Wunderground v.1.15,2014-11-23 10:29:00,
2014-11-23 02:34:00,40.8,38.9,30.43,WNW,286,0.0,0.0,93,0.00,,,0.00,Wunderground v.1.15,2014-11-23 10:34:00,
2014-11-23 02:39:00,40.8,38.9,30.43,WNW,286,0.0,0.0,93,0.00,,,0.00,Wunderground v.1.15,2014-11-23 10:39:00,
2014-11-23 02:44:00,40.8,38.9,30.43,WNW,286,0.0,0.0,93,0.00,,,0.00,Wunderground v.1.15,2014-11-23 10:44:00,
2014-11-23 02:49:00,40.8,38.9,30.43,WNW,286,0.0,0.0,93,0.00,,,0.00,Wunderground v.1.15,2014-11-23 10:49:00,
2014-11-23 02:55:00,40.8,38.9,30.43,WNW,286,0.0,0.0,93,0.00,,,0.00,Wunderground v.1.15,2014-11-23 10:55:00,
2014-11-23 03:00:00,40.8,38.9,30.43,WNW,286,0.0,0.0,93,0.00,,,0.00,Wunderground v.1.15,2014-11-23 11:00:00,
2014-11-23 03:05:00,40.9,39.0,30.43,WNW,286,0.0,0.0,93,0.00,,,0.00,Wunderground v.1.15,2014-11-23 11:05:00,
2014-11-23 03:10:00,40.8,38.9,30.43,WNW,286,0.0,0.0,93,0.00,,,0.00,Wunderground v.1.15,2014-11-23 11:10:00,
2014-11-23 03:15:00,40.6,38.7,30.43,WNW,286,0.0,0.0,93,0.00,,,0.00,Wunderground v.1.15,2014-11-23 11:15:00,
2014-11-23 03:20:00,40.3,38.4,30.43,WNW,286,0.0,0.0,93,0.00,,,0.00,Wunderground v.1.15,2014-11-23 11:20:00,
2014-11-23 03:25:00,40.3,38.4,30.43,WNW,286,0.0,0.0,93,0.00,,,0.00,Wunderground v.1.15,2014-11-23 11:25:00,
2014-11-23 03:30:00,40.2,38.3,30.43,WNW,286,0.0,0.0,93,0.00,,,0.00,Wunderground v.1.15,2014-11-23 11:30:00,
2014-11-23 03:35:00,40.2,38.3,30.43,WNW,286,0.0,0.0,93,0.00,,,0.00,Wunderground v.1.15,2014-11-23 11:35:00,
2014-11-23 03:40:00,40.2,38.3,30.43,WNW,286,0.0,0.0,93,0.00,,,0.00,Wunderground v.1.15,2014-11-23 11:40:00,
2014-11-23 03:45:00,40.2,38.3,30.43,WNW,286,0.0,0.0,93,0.00,,,0.00,Wunderground v.1.15,2014-11-23 11:45:00,
2014-11-23 03:50:00,40.2,38.3,30.43,WNW,286,0.0,0.0,93,0.00,,,0.00,Wunderground v.1.15,2014-11-23 11:50:00,
2014-11-23 03:55:00,40.2,38.3,30.43,WNW,286,0.0,0.0,93,0.00,,,0.00,Wunderground v.1.15,2014-11-23 11:55:00,
2014-11-23 04:04:00,40.2,38.3,30.43,WNW,286,0.0,0.0,93,0.00,,,0.00,Wunderground v.1.15,2014-11-23 12:04:00,
2014-11-23 04:10:00,40.2,38.3,30.43,WNW,286,0.0,0.0,93,0.00,,,0.00,Wunderground v.1.15,2014-11-23 12:10:00,
2014-11-23 04:15:00,40.3,38.4,30.43,WNW,286,0.0,0.0,93,0.00,,,0.00,Wunderground v.1.15,2014-11-23 12:15:00,